sensor_id;sensor_type;location;lat;lon;timestamp;pressure;altitude;pressure_sealevel;temperature;humidity
27210;BME280;14721;42.668;23.386;2023-01-31T00:01:55;94884.16;;;0.20;78.64
27210;BME280;14721;42.668;23.386;2023-01-31T00:04:21;94899.16;;;0.38;78.78
27210;BME280;14721;42.668;23.386;2023-01-31T00:06:47;94892.06;;;0.40;78.64
27210;BME280;14721;42.668;23.386;2023-01-31T00:09:15;94904.75;;;0.50;78.69
27210;BME280;14721;42.668;23.386;2023-01-31T00:11:41;94915.81;;;0.58;78.19
27210;BME280;14721;42.668;23.386;2023-01-31T00:14:08;94912.19;;;0.61;77.70
27210;BME280;14721;42.668;23.386;2023-01-31T00:16:35;94909.38;;;0.65;77.14
27210;BME280;14721;42.668;23.386;2023-01-31T00:19:01;94902.00;;;0.53;76.96
27210;BME280;14721;42.668;23.386;2023-01-31T00:21:28;94898.97;;;0.42;77.44
27210;BME280;14721;42.668;23.386;2023-01-31T00:23:55;94888.34;;;0.25;78.26
27210;BME280;14721;42.668;23.386;2023-01-31T00:26:27;94881.97;;;0.31;78.65
27210;BME280;14721;42.668;23.386;2023-01-31T00:28:57;94889.03;;;0.29;78.75
27210;BME280;14721;42.668;23.386;2023-01-31T00:31:25;94887.34;;;0.28;79.24
27210;BME280;14721;42.668;23.386;2023-01-31T00:33:52;94883.66;;;0.32;79.44
27210;BME280;14721;42.668;23.386;2023-01-31T00:36:23;94893.59;;;0.25;79.82
27210;BME280;14721;42.668;23.386;2023-01-31T00:38:51;94894.94;;;0.14;79.96
27210;BME280;14721;42.668;23.386;2023-01-31T00:41:21;94899.59;;;0.07;80.39
27210;BME280;14721;42.668;23.386;2023-01-31T00:43:48;94889.91;;;0.08;81.12
27210;BME280;14721;42.668;23.386;2023-01-31T00:46:14;94890.03;;;0.04;81.23
27210;BME280;14721;42.668;23.386;2023-01-31T00:48:39;94891.28;;;-0.04;81.86
27210;BME280;14721;42.668;23.386;2023-01-31T00:51:05;94895.19;;;0.08;82.22
27210;BME280;14721;42.668;23.386;2023-01-31T00:53:31;94891.97;;;0.21;82.16
27210;BME280;14721;42.668;23.386;2023-01-31T00:56:05;94897.94;;;0.04;82.55
27210;BME280;14721;42.668;23.386;2023-01-31T00:58:32;94881.66;;;-0.25;83.42
27210;BME280;14721;42.668;23.386;2023-01-31T01:01:19;94881.72;;;-0.05;83.74
27210;BME280;14721;42.668;23.386;2023-01-31T01:03:46;94882.91;;;0.08;83.73
27210;BME280;14721;42.668;23.386;2023-01-31T01:06:12;94879.78;;;0.20;83.28
27210;BME280;14721;42.668;23.386;2023-01-31T01:08:40;94883.00;;;0.27;82.44
27210;BME280;14721;42.668;23.386;2023-01-31T01:11:13;94886.09;;;0.36;82.08
27210;BME280;14721;42.668;23.386;2023-01-31T01:13:39;94898.31;;;0.37;81.60
27210;BME280;14721;42.668;23.386;2023-01-31T01:16:11;94900.47;;;0.28;82.49
27210;BME280;14721;42.668;23.386;2023-01-31T01:18:37;94892.09;;;0.18;82.66
27210;BME280;14721;42.668;23.386;2023-01-31T01:21:10;94900.59;;;0.25;83.06
27210;BME280;14721;42.668;23.386;2023-01-31T01:23:37;94883.66;;;0.32;82.75
27210;BME280;14721;42.668;23.386;2023-01-31T01:26:03;94885.19;;;0.37;81.99
27210;BME280;14721;42.668;23.386;2023-01-31T01:28:32;94885.69;;;0.45;81.57
27210;BME280;14721;42.668;23.386;2023-01-31T01:31:04;94881.06;;;0.52;80.59
27210;BME280;14721;42.668;23.386;2023-01-31T01:33:30;94881.06;;;0.52;79.60
27210;BME280;14721;42.668;23.386;2023-01-31T01:36:07;94870.53;;;0.52;78.90
27210;BME280;14721;42.668;23.386;2023-01-31T01:38:36;94877.88;;;0.64;78.36
27210;BME280;14721;42.668;23.386;2023-01-31T01:41:03;94873.03;;;0.75;76.42
27210;BME280;14721;42.668;23.386;2023-01-31T01:43:44;94868.34;;;0.81;75.54
27210;BME280;14721;42.668;23.386;2023-01-31T01:48:43;94858.69;;;0.82;74.53
27210;BME280;14721;42.668;23.386;2023-01-31T01:51:12;94870.63;;;0.89;73.82
27210;BME280;14721;42.668;23.386;2023-01-31T01:53:40;94870.50;;;0.92;73.15
27210;BME280;14721;42.668;23.386;2023-01-31T01:56:28;94873.31;;;1.07;72.57
27210;BME280;14721;42.668;23.386;2023-01-31T01:59:11;94867.91;;;1.10;71.16
27210;BME280;14721;42.668;23.386;2023-01-31T02:01:37;94871.81;;;1.20;69.73
27210;BME280;14721;42.668;23.386;2023-01-31T02:04:10;94878.59;;;1.26;68.01
27210;BME280;14721;42.668;23.386;2023-01-31T02:06:38;94870.63;;;1.27;68.12
27210;BME280;14721;42.668;23.386;2023-01-31T02:09:07;94860.94;;;1.28;68.08
27210;BME280;14721;42.668;23.386;2023-01-31T02:11:36;94873.97;;;1.31;67.56
27210;BME280;14721;42.668;23.386;2023-01-31T02:14:05;94878.88;;;1.38;66.56
27210;BME280;14721;42.668;23.386;2023-01-31T02:16:34;94866.84;;;1.33;66.33
27210;BME280;14721;42.668;23.386;2023-01-31T02:18:59;94879.09;;;1.34;66.33
27210;BME280;14721;42.668;23.386;2023-01-31T02:24:19;94879.09;;;1.34;64.63
27210;BME280;14721;42.668;23.386;2023-01-31T02:40:27;94866.38;;;1.43;62.38
27210;BME280;14721;42.668;23.386;2023-01-31T02:43:01;94863.66;;;1.45;62.30
27210;BME280;14721;42.668;23.386;2023-01-31T02:53:30;94883.78;;;1.46;63.00
27210;BME280;14721;42.668;23.386;2023-01-31T02:56:03;94886.94;;;1.54;63.03
27210;BME280;14721;42.668;23.386;2023-01-31T02:59:06;94910.84;;;1.49;63.35
27210;BME280;14721;42.668;23.386;2023-01-31T03:01:57;94908.13;;;1.51;63.01
27210;BME280;14721;42.668;23.386;2023-01-31T03:04:30;94912.53;;;1.50;63.28
27210;BME280;14721;42.668;23.386;2023-01-31T03:12:48;94930.41;;;1.44;65.24
27210;BME280;14721;42.668;23.386;2023-01-31T03:17:48;94949.38;;;1.50;64.76
27210;BME280;14721;42.668;23.386;2023-01-31T03:20:30;94946.81;;;1.49;64.85
27210;BME280;14721;42.668;23.386;2023-01-31T03:23:04;94953.09;;;1.46;65.14
27210;BME280;14721;42.668;23.386;2023-01-31T03:25:34;94953.16;;;1.45;65.44
27210;BME280;14721;42.668;23.386;2023-01-31T03:28:03;94944.59;;;1.40;66.31
27210;BME280;14721;42.668;23.386;2023-01-31T03:30:42;94951.81;;;1.36;66.50
27210;BME280;14721;42.668;23.386;2023-01-31T03:33:18;94959.91;;;1.32;67.16
27210;BME280;14721;42.668;23.386;2023-01-31T03:35:49;94958.44;;;1.25;67.49
27210;BME280;14721;42.668;23.386;2023-01-31T03:38:20;94961.22;;;1.22;67.86
27210;BME280;14721;42.668;23.386;2023-01-31T03:40:56;94957.09;;;1.16;68.24
27210;BME280;14721;42.668;23.386;2023-01-31T03:43:35;94968.81;;;1.09;69.03
27210;BME280;14721;42.668;23.386;2023-01-31T03:46:11;94979.66;;;1.02;69.63
27210;BME280;14721;42.668;23.386;2023-01-31T03:48:42;94977.16;;;0.99;70.35
27210;BME280;14721;42.668;23.386;2023-01-31T03:51:17;94974.00;;;0.91;71.05
27210;BME280;14721;42.668;23.386;2023-01-31T03:53:51;94975.19;;;0.84;71.98
27210;BME280;14721;42.668;23.386;2023-01-31T03:56:28;94954.41;;;0.78;72.26
27210;BME280;14721;42.668;23.386;2023-01-31T03:59:00;94966.25;;;0.88;72.93
27210;BME280;14721;42.668;23.386;2023-01-31T04:01:28;94965.50;;;0.84;72.99
27210;BME280;14721;42.668;23.386;2023-01-31T04:04:16;94967.75;;;0.73;73.94
27210;BME280;14721;42.668;23.386;2023-01-31T04:06:43;94964.88;;;0.79;74.70
27210;BME280;14721;42.668;23.386;2023-01-31T04:09:09;94967.94;;;0.89;74.64
27210;BME280;14721;42.668;23.386;2023-01-31T04:11:38;94956.50;;;0.90;74.64
27210;BME280;14721;42.668;23.386;2023-01-31T04:14:04;94967.75;;;0.93;75.16
27210;BME280;14721;42.668;23.386;2023-01-31T04:16:30;94961.78;;;0.90;75.31
27210;BME280;14721;42.668;23.386;2023-01-31T04:18:55;94973.00;;;0.93;75.69
27210;BME280;14721;42.668;23.386;2023-01-31T04:21:21;94967.66;;;0.95;76.08
27210;BME280;14721;42.668;23.386;2023-01-31T04:23:47;94972.81;;;0.98;76.67
27210;BME280;14721;42.668;23.386;2023-01-31T04:26:12;94963.16;;;0.98;77.15
27210;BME280;14721;42.668;23.386;2023-01-31T04:28:42;94965.84;;;0.97;77.72
27210;BME280;14721;42.668;23.386;2023-01-31T04:31:07;94964.28;;;0.93;77.90
27210;BME280;14721;42.668;23.386;2023-01-31T04:33:37;94977.81;;;1.04;78.17
27210;BME280;14721;42.668;23.386;2023-01-31T04:36:03;94973.41;;;1.04;78.24
27210;BME280;14721;42.668;23.386;2023-01-31T04:38:29;94977.94;;;1.01;78.78
27210;BME280;14721;42.668;23.386;2023-01-31T04:40:54;94976.91;;;1.05;79.43
27210;BME280;14721;42.668;23.386;2023-01-31T04:43:20;94978.47;;;1.09;79.41
27210;BME280;14721;42.668;23.386;2023-01-31T04:45:45;95000.03;;;0.97;79.80
27210;BME280;14721;42.668;23.386;2023-01-31T04:48:16;95004.13;;;0.84;80.59
27210;BME280;14721;42.668;23.386;2023-01-31T04:50:48;95015.47;;;0.84;81.07
27210;BME280;14721;42.668;23.386;2023-01-31T04:53:17;95007.78;;;0.80;81.58
27210;BME280;14721;42.668;23.386;2023-01-31T04:55:43;95002.63;;;0.77;82.15
27210;BME280;14721;42.668;23.386;2023-01-31T04:58:08;95005.22;;;0.78;81.97
27210;BME280;14721;42.668;23.386;2023-01-31T05:00:34;95009.50;;;0.81;82.28
27210;BME280;14721;42.668;23.386;2023-01-31T05:02:59;95000.75;;;0.80;82.32
27210;BME280;14721;42.668;23.386;2023-01-31T05:05:32;95000.75;;;0.80;82.30
27210;BME280;14721;42.668;23.386;2023-01-31T05:07:58;94995.38;;;0.83;82.81
27210;BME280;14721;42.668;23.386;2023-01-31T05:10:25;95002.38;;;0.83;83.06
27210;BME280;14721;42.668;23.386;2023-01-31T05:12:54;94998.78;;;0.85;82.93
27210;BME280;14721;42.668;23.386;2023-01-31T05:15:21;95001.28;;;0.88;82.95
27210;BME280;14721;42.668;23.386;2023-01-31T05:17:53;95009.00;;;0.93;82.65
27210;BME280;14721;42.668;23.386;2023-01-31T05:20:37;95002.66;;;0.97;82.43
27210;BME280;14721;42.668;23.386;2023-01-31T05:23:06;95011.22;;;1.02;81.83
27210;BME280;14721;42.668;23.386;2023-01-31T05:25:34;95007.81;;;1.00;81.54
27210;BME280;14721;42.668;23.386;2023-01-31T05:28:00;95017.19;;;1.05;81.32
27210;BME280;14721;42.668;23.386;2023-01-31T05:30:25;95018.94;;;1.06;81.40
27210;BME280;14721;42.668;23.386;2023-01-31T05:32:51;95016.94;;;1.11;81.30
27210;BME280;14721;42.668;23.386;2023-01-31T05:35:17;95024.50;;;1.19;81.16
27210;BME280;14721;42.668;23.386;2023-01-31T05:37:43;95033.13;;;1.22;81.13
27210;BME280;14721;42.668;23.386;2023-01-31T05:40:11;95033.06;;;1.24;81.20
27210;BME280;14721;42.668;23.386;2023-01-31T05:42:37;95031.56;;;1.18;81.27
27210;BME280;14721;42.668;23.386;2023-01-31T05:45:03;95027.00;;;1.22;81.13
27210;BME280;14721;42.668;23.386;2023-01-31T05:47:29;95028.84;;;1.20;81.29
27210;BME280;14721;42.668;23.386;2023-01-31T05:49:54;95031.03;;;1.30;81.03
27210;BME280;14721;42.668;23.386;2023-01-31T05:52:20;95029.16;;;1.32;80.79
27210;BME280;14721;42.668;23.386;2023-01-31T05:54:46;95022.34;;;1.28;80.48
27210;BME280;14721;42.668;23.386;2023-01-31T05:57:12;95028.06;;;1.38;80.17
27210;BME280;14721;42.668;23.386;2023-01-31T05:59:41;95032.41;;;1.39;80.03
27210;BME280;14721;42.668;23.386;2023-01-31T06:02:07;95035.91;;;1.39;79.94
27210;BME280;14721;42.668;23.386;2023-01-31T06:04:35;95035.91;;;1.39;79.96
27210;BME280;14721;42.668;23.386;2023-01-31T06:07:01;95028.25;;;1.33;79.98
27210;BME280;14721;42.668;23.386;2023-01-31T06:09:27;95037.78;;;1.36;80.36
27210;BME280;14721;42.668;23.386;2023-01-31T06:11:52;95036.03;;;1.36;80.49
27210;BME280;14721;42.668;23.386;2023-01-31T06:14:18;95037.78;;;1.36;80.52
27210;BME280;14721;42.668;23.386;2023-01-31T06:16:44;95036.59;;;1.43;80.51
27210;BME280;14721;42.668;23.386;2023-01-31T06:19:11;95047.13;;;1.43;80.59
27210;BME280;14721;42.668;23.386;2023-01-31T06:21:36;95045.44;;;1.42;80.81
27210;BME280;14721;42.668;23.386;2023-01-31T06:24:02;95058.13;;;1.52;80.58
27210;BME280;14721;42.668;23.386;2023-01-31T06:26:28;95053.72;;;1.53;80.49
27210;BME280;14721;42.668;23.386;2023-01-31T06:28:53;95059.69;;;1.56;80.02
27210;BME280;14721;42.668;23.386;2023-01-31T06:31:19;95049.94;;;1.58;80.01
27210;BME280;14721;42.668;23.386;2023-01-31T06:33:45;95054.16;;;1.62;80.22
27210;BME280;14721;42.668;23.386;2023-01-31T06:36:11;95052.91;;;1.71;79.88
27210;BME280;14721;42.668;23.386;2023-01-31T06:38:36;95057.97;;;1.75;79.83
27210;BME280;14721;42.668;23.386;2023-01-31T06:41:01;95059.22;;;1.67;80.35
27210;BME280;14721;42.668;23.386;2023-01-31T06:43:27;95067.63;;;1.75;80.24
27210;BME280;14721;42.668;23.386;2023-01-31T06:45:52;95069.28;;;1.77;80.24
27210;BME280;14721;42.668;23.386;2023-01-31T06:48:18;95066.72;;;1.76;80.26
27210;BME280;14721;42.668;23.386;2023-01-31T06:50:46;95073.50;;;1.81;80.38
27210;BME280;14721;42.668;23.386;2023-01-31T06:53:12;95070.00;;;1.81;80.28
27210;BME280;14721;42.668;23.386;2023-01-31T06:55:37;95079.47;;;1.85;80.14
27210;BME280;14721;42.668;23.386;2023-01-31T06:58:03;95074.06;;;1.88;79.84
27210;BME280;14721;42.668;23.386;2023-01-31T07:00:28;95072.56;;;1.82;79.96
27210;BME280;14721;42.668;23.386;2023-01-31T07:02:54;95080.06;;;1.91;79.96
27210;BME280;14721;42.668;23.386;2023-01-31T07:05:21;95079.19;;;1.91;79.82
27210;BME280;14721;42.668;23.386;2023-01-31T07:07:47;95084.41;;;1.92;79.89
27210;BME280;14721;42.668;23.386;2023-01-31T07:10:15;95080.84;;;1.93;79.69
27210;BME280;14721;42.668;23.386;2023-01-31T07:12:40;95067.41;;;2.00;79.62
27210;BME280;14721;42.668;23.386;2023-01-31T07:15:07;95073.56;;;1.98;79.45
27210;BME280;14721;42.668;23.386;2023-01-31T07:17:32;95078.63;;;2.03;79.36
27210;BME280;14721;42.668;23.386;2023-01-31T07:19:59;95085.50;;;2.07;78.99
27210;BME280;14721;42.668;23.386;2023-01-31T07:22:24;95080.66;;;2.17;78.75
27210;BME280;14721;42.668;23.386;2023-01-31T07:24:50;95087.88;;;2.13;78.39
27210;BME280;14721;42.668;23.386;2023-01-31T07:27:16;95083.78;;;2.06;79.05
27210;BME280;14721;42.668;23.386;2023-01-31T07:29:42;95081.00;;;2.09;78.27
27210;BME280;14721;42.668;23.386;2023-01-31T07:32:08;95089.69;;;2.11;78.59
27210;BME280;14721;42.668;23.386;2023-01-31T07:34:34;95084.50;;;2.10;78.43
27210;BME280;14721;42.668;23.386;2023-01-31T07:37:00;95089.69;;;2.11;79.02
27210;BME280;14721;42.668;23.386;2023-01-31T07:39:26;95086.94;;;2.14;79.02
27210;BME280;14721;42.668;23.386;2023-01-31T07:41:51;95089.41;;;2.17;79.21
27210;BME280;14721;42.668;23.386;2023-01-31T07:44:17;95086.78;;;2.17;78.97
27210;BME280;14721;42.668;23.386;2023-01-31T07:46:43;95083.88;;;2.23;79.11
27210;BME280;14721;42.668;23.386;2023-01-31T07:49:09;95094.00;;;2.32;78.99
27210;BME280;14721;42.668;23.386;2023-01-31T07:51:35;95094.13;;;2.29;79.12
27210;BME280;14721;42.668;23.386;2023-01-31T07:54:04;95070.41;;;2.29;79.06
27210;BME280;14721;42.668;23.386;2023-01-31T07:56:30;95083.88;;;2.42;78.83
27210;BME280;14721;42.668;23.386;2023-01-31T07:58:58;95096.56;;;2.52;78.70
27210;BME280;14721;42.668;23.386;2023-01-31T08:01:25;95093.78;;;2.37;79.12
27210;BME280;14721;42.668;23.386;2023-01-31T08:04:14;95073.13;;;2.46;79.33
27210;BME280;14721;42.668;23.386;2023-01-31T08:06:42;95084.44;;;2.48;79.24
27210;BME280;14721;42.668;23.386;2023-01-31T08:09:08;95076.81;;;2.61;79.29
27210;BME280;14721;42.668;23.386;2023-01-31T08:11:34;95081.94;;;2.64;79.06
27210;BME280;14721;42.668;23.386;2023-01-31T08:13:59;95088.13;;;2.63;79.12
27210;BME280;14721;42.668;23.386;2023-01-31T08:16:25;95084.22;;;2.71;79.00
27210;BME280;14721;42.668;23.386;2023-01-31T08:18:51;95071.31;;;2.65;79.22
27210;BME280;14721;42.668;23.386;2023-01-31T08:21:18;95067.06;;;2.44;79.67
27210;BME280;14721;42.668;23.386;2023-01-31T08:23:44;95069.41;;;2.50;80.00
27210;BME280;14721;42.668;23.386;2023-01-31T08:26:15;95072.63;;;2.57;79.95
27210;BME280;14721;42.668;23.386;2023-01-31T08:28:42;95065.38;;;2.60;79.86
27210;BME280;14721;42.668;23.386;2023-01-31T08:31:13;95079.84;;;2.70;79.95
27210;BME280;14721;42.668;23.386;2023-01-31T08:33:39;95075.69;;;2.83;79.35
27210;BME280;14721;42.668;23.386;2023-01-31T08:38:34;95078.25;;;3.20;77.83
27210;BME280;14721;42.668;23.386;2023-01-31T08:41:00;95072.25;;;3.17;76.82
27210;BME280;14721;42.668;23.386;2023-01-31T08:43:25;95073.19;;;3.16;76.38
27210;BME280;14721;42.668;23.386;2023-01-31T08:45:50;95076.53;;;3.19;76.56
27210;BME280;14721;42.668;23.386;2023-01-31T08:48:16;95066.81;;;3.03;76.53
27210;BME280;14721;42.668;23.386;2023-01-31T08:50:41;95074.09;;;2.98;77.04
27210;BME280;14721;42.668;23.386;2023-01-31T08:53:07;95085.53;;;2.98;76.78
27210;BME280;14721;42.668;23.386;2023-01-31T08:55:34;95090.78;;;2.98;76.97
27210;BME280;14721;42.668;23.386;2023-01-31T08:58:00;95073.59;;;2.90;77.40
27210;BME280;14721;42.668;23.386;2023-01-31T09:00:27;95070.34;;;2.85;77.66
27210;BME280;14721;42.668;23.386;2023-01-31T09:02:58;95081.63;;;3.05;77.45
27210;BME280;14721;42.668;23.386;2023-01-31T09:05:25;95062.00;;;3.11;76.93
27210;BME280;14721;42.668;23.386;2023-01-31T09:07:51;95072.09;;;3.20;76.75
27210;BME280;14721;42.668;23.386;2023-01-31T09:10:18;95069.78;;;3.31;76.30
27210;BME280;14721;42.668;23.386;2023-01-31T09:12:44;95075.06;;;3.48;75.23
27210;BME280;14721;42.668;23.386;2023-01-31T09:15:10;95081.28;;;3.64;74.71
27210;BME280;14721;42.668;23.386;2023-01-31T09:17:37;95071.94;;;3.74;74.19
27210;BME280;14721;42.668;23.386;2023-01-31T09:20:03;95058.69;;;3.58;74.07
27210;BME280;14721;42.668;23.386;2023-01-31T09:22:32;95069.16;;;3.60;73.99
27210;BME280;14721;42.668;23.386;2023-01-31T09:24:58;95062.72;;;3.48;73.51
27210;BME280;14721;42.668;23.386;2023-01-31T09:27:25;95050.59;;;3.44;73.68
27210;BME280;14721;42.668;23.386;2023-01-31T09:29:51;95071.09;;;3.56;73.89
27210;BME280;14721;42.668;23.386;2023-01-31T09:32:16;95063.97;;;3.58;73.35
27210;BME280;14721;42.668;23.386;2023-01-31T09:34:42;95051.59;;;3.59;73.91
27210;BME280;14721;42.668;23.386;2023-01-31T09:37:07;95042.94;;;3.72;73.13
27210;BME280;14721;42.668;23.386;2023-01-31T09:39:33;95040.19;;;3.91;72.16
27210;BME280;14721;42.668;23.386;2023-01-31T09:42:28;95045.56;;;3.89;72.72
27210;BME280;14721;42.668;23.386;2023-01-31T09:45:03;95041.97;;;3.90;71.77
27210;BME280;14721;42.668;23.386;2023-01-31T09:47:35;95043.88;;;3.88;72.38
27210;BME280;14721;42.668;23.386;2023-01-31T09:50:39;95053.66;;;3.86;71.85
27210;BME280;14721;42.668;23.386;2023-01-31T09:53:11;95043.09;;;3.86;72.06
27210;BME280;14721;42.668;23.386;2023-01-31T09:55:45;95045.25;;;3.96;71.95
27210;BME280;14721;42.668;23.386;2023-01-31T09:58:34;95047.09;;;3.93;71.83
27210;BME280;14721;42.668;23.386;2023-01-31T10:01:13;95042.19;;;4.03;71.61
27210;BME280;14721;42.668;23.386;2023-01-31T10:07:08;95038.50;;;4.38;70.49
27210;BME280;14721;42.668;23.386;2023-01-31T10:12:24;95033.97;;;4.56;70.27
27210;BME280;14721;42.668;23.386;2023-01-31T10:14:59;95038.91;;;4.46;69.89
27210;BME280;14721;42.668;23.386;2023-01-31T10:17:40;95041.91;;;4.25;69.54
27210;BME280;14721;42.668;23.386;2023-01-31T10:27:52;95022.75;;;4.04;70.65
27210;BME280;14721;42.668;23.386;2023-01-31T10:30:23;95026.91;;;3.92;70.88
27210;BME280;14721;42.668;23.386;2023-01-31T10:32:58;95028.97;;;4.03;70.52
27210;BME280;14721;42.668;23.386;2023-01-31T10:35:27;95023.44;;;4.08;70.64
27210;BME280;14721;42.668;23.386;2023-01-31T10:38:00;95030.53;;;4.23;69.92
27210;BME280;14721;42.668;23.386;2023-01-31T10:40:35;95020.13;;;4.20;70.69
27210;BME280;14721;42.668;23.386;2023-01-31T10:45:58;95023.28;;;4.11;70.57
27210;BME280;14721;42.668;23.386;2023-01-31T10:48:27;95028.19;;;4.01;70.75
27210;BME280;14721;42.668;23.386;2023-01-31T10:53:48;95025.25;;;3.74;71.07
27210;BME280;14721;42.668;23.386;2023-01-31T10:56:36;95021.69;;;3.58;71.91
27210;BME280;14721;42.668;23.386;2023-01-31T10:59:36;95025.88;;;3.62;72.23
27210;BME280;14721;42.668;23.386;2023-01-31T11:02:03;95027.69;;;3.45;72.41
27210;BME280;14721;42.668;23.386;2023-01-31T11:04:41;95030.41;;;3.43;73.15
27210;BME280;14721;42.668;23.386;2023-01-31T11:07:08;95028.72;;;3.25;73.16
27210;BME280;14721;42.668;23.386;2023-01-31T11:09:39;95027.06;;;3.23;73.37
27210;BME280;14721;42.668;23.386;2023-01-31T11:12:06;95019.22;;;3.21;74.16
27210;BME280;14721;42.668;23.386;2023-01-31T11:14:32;95022.66;;;3.23;74.71
27210;BME280;14721;42.668;23.386;2023-01-31T11:20:05;95036.72;;;3.24;74.64
27210;BME280;14721;42.668;23.386;2023-01-31T11:22:32;95032.28;;;3.41;74.55
27210;BME280;14721;42.668;23.386;2023-01-31T11:25:00;95035.38;;;3.49;73.74
27210;BME280;14721;42.668;23.386;2023-01-31T11:27:39;95026.69;;;3.47;73.72
27210;BME280;14721;42.668;23.386;2023-01-31T11:30:19;95029.63;;;3.58;73.24
27210;BME280;14721;42.668;23.386;2023-01-31T11:32:46;95019.00;;;3.43;73.98
27210;BME280;14721;42.668;23.386;2023-01-31T11:37:58;95029.47;;;3.44;75.20
27210;BME280;14721;42.668;23.386;2023-01-31T11:40:39;95034.50;;;3.32;75.97
27210;BME280;14721;42.668;23.386;2023-01-31T11:45:51;95028.91;;;3.55;76.67
27210;BME280;14721;42.668;23.386;2023-01-31T11:48:24;95019.53;;;3.49;76.84
27210;BME280;14721;42.668;23.386;2023-01-31T11:50:53;95021.63;;;3.60;77.30
27210;BME280;14721;42.668;23.386;2023-01-31T11:53:47;95020.13;;;3.54;77.87
27210;BME280;14721;42.668;23.386;2023-01-31T11:56:21;95030.25;;;3.29;78.62
27210;BME280;14721;42.668;23.386;2023-01-31T11:58:52;95030.09;;;3.15;79.07
27210;BME280;14721;42.668;23.386;2023-01-31T12:01:22;95023.56;;;3.05;80.58
27210;BME280;14721;42.668;23.386;2023-01-31T12:03:54;95017.13;;;2.94;81.59
27210;BME280;14721;42.668;23.386;2023-01-31T12:06:40;95022.75;;;2.69;83.52
27210;BME280;14721;42.668;23.386;2023-01-31T12:09:20;95020.97;;;2.70;84.63
27210;BME280;14721;42.668;23.386;2023-01-31T12:11:56;95031.31;;;2.74;84.88
27210;BME280;14721;42.668;23.386;2023-01-31T12:14:24;95022.63;;;2.89;84.58
27210;BME280;14721;42.668;23.386;2023-01-31T12:17:00;95026.34;;;2.85;84.00
27210;BME280;14721;42.668;23.386;2023-01-31T12:19:43;95014.66;;;2.91;83.65
27210;BME280;14721;42.668;23.386;2023-01-31T12:22:35;95027.22;;;3.03;83.28
27210;BME280;14721;42.668;23.386;2023-01-31T12:25:24;95011.84;;;2.94;82.49
27210;BME280;14721;42.668;23.386;2023-01-31T12:28:05;95010.84;;;2.96;82.53
27210;BME280;14721;42.668;23.386;2023-01-31T12:36:01;95026.03;;;2.91;81.86
27210;BME280;14721;42.668;23.386;2023-01-31T12:38:38;95024.66;;;3.01;82.18
27210;BME280;14721;42.668;23.386;2023-01-31T12:47:15;95027.31;;;3.01;79.65
27210;BME280;14721;42.668;23.386;2023-01-31T12:55:31;95031.00;;;2.80;80.36
27210;BME280;14721;42.668;23.386;2023-01-31T13:06:49;95025.84;;;2.60;84.14
27210;BME280;14721;42.668;23.386;2023-01-31T13:09:23;95025.75;;;2.62;84.22
27210;BME280;14721;42.668;23.386;2023-01-31T13:11:55;95046.94;;;2.60;84.33
27210;BME280;14721;42.668;23.386;2023-01-31T13:14:25;95040.78;;;2.60;84.26
27210;BME280;14721;42.668;23.386;2023-01-31T13:16:54;95033.53;;;2.65;84.28
27210;BME280;14721;42.668;23.386;2023-01-31T13:22:01;95054.19;;;2.74;82.08
27210;BME280;14721;42.668;23.386;2023-01-31T13:24:39;95042.75;;;2.73;81.75
27210;BME280;14721;42.668;23.386;2023-01-31T13:27:16;95048.75;;;2.77;81.79
27210;BME280;14721;42.668;23.386;2023-01-31T13:30:21;95052.13;;;2.80;81.90
27210;BME280;14721;42.668;23.386;2023-01-31T13:32:51;95044.66;;;2.88;81.72
27210;BME280;14721;42.668;23.386;2023-01-31T13:35:31;95055.34;;;2.85;81.37
27210;BME280;14721;42.668;23.386;2023-01-31T13:38:00;95050.31;;;2.81;81.59
27210;BME280;14721;42.668;23.386;2023-01-31T13:40:31;95029.72;;;2.70;81.38
27210;BME280;14721;42.668;23.386;2023-01-31T13:43:03;95051.97;;;2.83;81.88
27210;BME280;14721;42.668;23.386;2023-01-31T13:45:36;95050.16;;;2.84;81.50
27210;BME280;14721;42.668;23.386;2023-01-31T13:48:13;95053.22;;;2.93;81.68
27210;BME280;14721;42.668;23.386;2023-01-31T13:51:10;95044.50;;;2.91;81.89
27210;BME280;14721;42.668;23.386;2023-01-31T13:54:15;95053.94;;;2.97;81.98
27210;BME280;14721;42.668;23.386;2023-01-31T13:56:48;95043.91;;;3.03;81.39
27210;BME280;14721;42.668;23.386;2023-01-31T13:59:20;95055.47;;;3.01;79.93
27210;BME280;14721;42.668;23.386;2023-01-31T14:01:48;95055.25;;;3.05;79.90
27210;BME280;14721;42.668;23.386;2023-01-31T14:09:33;95054.06;;;3.11;78.73
27210;BME280;14721;42.668;23.386;2023-01-31T14:12:01;95062.94;;;3.10;78.84
27210;BME280;14721;42.668;23.386;2023-01-31T14:14:55;95056.03;;;3.07;78.58
27210;BME280;14721;42.668;23.386;2023-01-31T14:22:26;95060.97;;;2.96;77.20
27210;BME280;14721;42.668;23.386;2023-01-31T14:24:57;95082.66;;;3.03;77.04
27210;BME280;14721;42.668;23.386;2023-01-31T14:32:32;95084.66;;;2.98;75.93
27210;BME280;14721;42.668;23.386;2023-01-31T14:40:34;95086.06;;;3.05;77.35
27210;BME280;14721;42.668;23.386;2023-01-31T14:57:30;95106.44;;;2.84;76.58
27210;BME280;14721;42.668;23.386;2023-01-31T15:00:05;95112.94;;;2.77;76.85
27210;BME280;14721;42.668;23.386;2023-01-31T15:02:41;95126.88;;;2.79;77.48
27210;BME280;14721;42.668;23.386;2023-01-31T15:11:01;95135.31;;;2.69;78.61
27210;BME280;14721;42.668;23.386;2023-01-31T15:13:44;95129.03;;;2.53;78.98
27210;BME280;14721;42.668;23.386;2023-01-31T15:18:56;95135.47;;;2.47;80.31
27210;BME280;14721;42.668;23.386;2023-01-31T15:21:38;95140.09;;;2.42;80.41
27210;BME280;14721;42.668;23.386;2023-01-31T15:24:18;95130.47;;;2.41;80.38
27210;BME280;14721;42.668;23.386;2023-01-31T15:26:45;95135.97;;;2.37;80.88
27210;BME280;14721;42.668;23.386;2023-01-31T15:29:28;95142.72;;;2.42;81.20
27210;BME280;14721;42.668;23.386;2023-01-31T15:32:05;95141.88;;;2.42;81.34
27210;BME280;14721;42.668;23.386;2023-01-31T15:34:40;95144.38;;;2.45;81.43
27210;BME280;14721;42.668;23.386;2023-01-31T15:37:20;95133.97;;;2.42;81.22